createdAt,value
2017-03-26T00:00:04.647Z,1021.12
2017-03-26T00:01:14.606Z,1021.11
2017-03-26T00:02:24.253Z,1021.15
2017-03-26T00:03:34.523Z,1021.13
2017-03-26T00:04:44.801Z,1021.09
2017-03-26T00:05:54.705Z,1021.07
2017-03-26T00:07:04.658Z,1021.07
2017-03-26T00:08:14.924Z,1021.07
2017-03-26T00:09:25.199Z,1021.08
2017-03-26T00:10:35.087Z,1021.03
2017-03-26T00:11:44.989Z,1021.03
2017-03-26T00:12:55.257Z,1021.06
2017-03-26T00:14:05.221Z,1021.03
2017-03-26T00:15:15.510Z,1021.04
2017-03-26T00:16:25.479Z,1021
2017-03-26T00:17:36.067Z,1020.98
2017-03-26T00:18:45.715Z,1021.04
2017-03-26T00:19:55.676Z,1021.05
2017-03-26T00:21:05.947Z,1021.02
2017-03-26T00:22:16.223Z,1021.04
2017-03-26T00:23:26.748Z,1021.02
2017-03-26T00:24:36.410Z,1020.99
2017-03-26T00:25:46.373Z,1020.98
2017-03-26T00:26:56.330Z,1020.95
2017-03-26T00:28:06.309Z,1020.92
2017-03-26T00:29:16.522Z,1020.96
2017-03-26T00:30:26.804Z,1020.94
2017-03-26T00:31:36.775Z,1020.96
2017-03-26T00:32:46.736Z,1020.96
2017-03-26T00:33:56.390Z,1020.98
2017-03-26T00:35:06.302Z,1020.99
2017-03-26T00:36:16.578Z,1021.02
2017-03-26T00:37:26.532Z,1021
2017-03-26T00:38:36.805Z,1021.04
2017-03-26T00:39:46.466Z,1020.98
2017-03-26T00:40:56.684Z,1021.02
2017-03-26T00:42:06.953Z,1021.01
2017-03-26T00:43:16.305Z,1020.99
2017-03-26T00:44:26.642Z,1020.98
2017-03-26T00:45:36.613Z,1020.96
2017-03-26T00:46:46.877Z,1021.01
2017-03-26T00:47:56.833Z,1020.95
2017-03-26T00:49:07.125Z,1020.98
2017-03-26T00:50:17.415Z,1020.97
2017-03-26T00:51:27.681Z,1020.94
2017-03-26T00:52:38.247Z,1020.97
2017-03-26T00:53:47.592Z,1020.95
2017-03-26T00:54:57.247Z,1020.91
2017-03-26T00:56:07.527Z,1020.9
2017-03-26T00:57:17.800Z,1020.92
2017-03-26T00:58:28.329Z,1020.92
2017-03-26T00:59:38.607Z,1020.94
2017-03-26T01:00:48.564Z,1020.95
2017-03-26T01:01:58.222Z,1020.94
2017-03-26T01:03:08.202Z,1020.94
2017-03-26T01:04:18.461Z,1020.93
2017-03-26T01:05:28.426Z,1020.95
2017-03-26T01:06:38.390Z,1020.9
2017-03-26T01:07:48.655Z,1020.88
2017-03-26T01:08:58.946Z,1020.87
2017-03-26T01:10:08.854Z,1020.9
2017-03-26T01:11:18.506Z,1020.85
2017-03-26T01:12:28.156Z,1020.85
2017-03-26T01:13:38.139Z,1020.86
2017-03-26T01:14:48.413Z,1020.83
2017-03-26T01:15:58.673Z,1020.82
2017-03-26T01:17:08.631Z,1020.85
2017-03-26T01:18:18.947Z,1020.81
2017-03-26T01:19:29.229Z,1020.83
2017-03-26T01:20:39.502Z,1020.82
2017-03-26T01:21:50.017Z,1020.83
2017-03-26T01:22:59.997Z,1020.84
2017-03-26T01:24:10.281Z,1020.82
2017-03-26T01:25:20.248Z,1020.79
2017-03-26T01:26:30.213Z,1020.8
2017-03-26T01:27:40.441Z,1020.77
2017-03-26T01:28:50.716Z,1020.75
2017-03-26T01:30:01.018Z,1020.76
2017-03-26T01:31:11.289Z,1020.77
2017-03-26T01:32:21.262Z,1020.76
2017-03-26T01:33:31.479Z,1020.76
2017-03-26T01:34:41.439Z,1020.74
2017-03-26T01:35:51.400Z,1020.73
2017-03-26T01:37:01.348Z,1020.75
2017-03-26T01:38:11.001Z,1020.75
2017-03-26T01:39:21.259Z,1020.74
2017-03-26T01:40:31.539Z,1020.72
2017-03-26T01:41:41.507Z,1020.72
2017-03-26T01:42:51.783Z,1020.73
2017-03-26T01:44:02.266Z,1020.77
2017-03-26T01:45:12.789Z,1020.76
2017-03-26T01:46:23.058Z,1020.8
2017-03-26T01:47:32.705Z,1020.8
2017-03-26T01:48:42.675Z,1020.79
2017-03-26T01:49:52.632Z,1020.8
2017-03-26T01:51:03.165Z,1020.8
2017-03-26T01:52:12.826Z,1020.82
2017-03-26T01:53:22.786Z,1020.83
2017-03-26T01:54:32.753Z,1020.82
2017-03-26T01:55:42.401Z,1020.82
2017-03-26T01:56:52.617Z,1020.83
2017-03-26T01:58:03.097Z,1020.87
2017-03-26T01:59:13.373Z,1020.89
2017-03-26T02:00:23.642Z,1020.91
2017-03-26T02:01:33.609Z,1020.92
2017-03-26T02:02:44.126Z,1020.93
2017-03-26T02:03:54.085Z,1020.94
2017-03-26T02:05:04.371Z,1020.97
2017-03-26T02:06:14.355Z,1021
2017-03-26T02:07:24.319Z,1021.11
2017-03-26T02:08:34.893Z,1021.06
2017-03-26T02:09:45.178Z,1021.03
2017-03-26T02:10:55.452Z,1021
2017-03-26T02:12:05.725Z,1021
2017-03-26T02:13:15.387Z,1021.02
2017-03-26T02:14:25.656Z,1021.06
2017-03-26T02:15:35.622Z,1021
2017-03-26T02:16:45.895Z,1020.97
2017-03-26T02:17:55.851Z,1021.01
2017-03-26T02:19:05.817Z,1021.04
2017-03-26T02:20:16.336Z,1020.97
2017-03-26T02:21:26.291Z,1020.96
2017-03-26T02:22:36.574Z,1020.96
2017-03-26T02:23:46.233Z,1020.94
2017-03-26T02:24:55.579Z,1020.95
2017-03-26T02:26:06.102Z,1020.92
2017-03-26T02:27:16.060Z,1020.93
2017-03-26T02:28:26.335Z,1020.9
2017-03-26T02:29:36.305Z,1020.91
2017-03-26T02:30:46.581Z,1020.9
2017-03-26T02:31:57.150Z,1020.94
2017-03-26T02:33:06.812Z,1020.94
2017-03-26T02:34:17.084Z,1020.93
2017-03-26T02:35:27.350Z,1020.88
2017-03-26T02:36:37.325Z,1020.92
2017-03-26T02:37:47.845Z,1020.89
2017-03-26T02:38:58.119Z,1020.94
2017-03-26T02:40:07.779Z,1020.93
2017-03-26T02:41:17.733Z,1020.91
2017-03-26T02:42:28.001Z,1020.89
2017-03-26T02:43:37.905Z,1020.88
2017-03-26T02:44:47.554Z,1020.87
2017-03-26T02:45:57.517Z,1020.88
2017-03-26T02:47:07.476Z,1020.89
2017-03-26T02:48:17.126Z,1020.9
2017-03-26T02:49:27.654Z,1020.92
2017-03-26T02:50:37.927Z,1020.94
2017-03-26T02:51:48.192Z,1020.91
2017-03-26T02:52:57.843Z,1020.9
2017-03-26T02:54:08.115Z,1020.87
2017-03-26T02:55:18.692Z,1020.86
2017-03-26T02:56:28.652Z,1020.92
2017-03-26T02:57:38.615Z,1020.91
2017-03-26T02:58:48.883Z,1020.93
2017-03-26T02:59:58.845Z,1020.9
2017-03-26T03:01:09.368Z,1020.88
2017-03-26T03:02:19.021Z,1020.88
2017-03-26T03:03:29.305Z,1020.86
2017-03-26T03:04:38.965Z,1020.84
2017-03-26T03:05:49.234Z,1020.87
2017-03-26T03:06:59.492Z,1020.86
2017-03-26T03:08:09.453Z,1020.86
2017-03-26T03:09:19.102Z,1020.84
2017-03-26T03:10:29.380Z,1020.83
2017-03-26T03:11:39.654Z,1020.86
2017-03-26T03:12:49.918Z,1020.84
2017-03-26T03:14:00.197Z,1020.82
2017-03-26T03:15:10.465Z,1020.84
2017-03-26T03:16:20.420Z,1020.86
2017-03-26T03:17:30.375Z,1020.84
2017-03-26T03:18:40.900Z,1020.83
2017-03-26T03:19:51.179Z,1020.84
2017-03-26T03:21:01.138Z,1020.85
2017-03-26T03:22:11.100Z,1020.85
2017-03-26T03:23:21.094Z,1020.87
2017-03-26T03:24:31.613Z,1020.92
2017-03-26T03:25:41.579Z,1020.91
2017-03-26T03:26:51.536Z,1020.9
2017-03-26T03:28:01.807Z,1020.91
2017-03-26T03:29:12.079Z,1020.91
2017-03-26T03:30:21.993Z,1020.94
2017-03-26T03:31:31.637Z,1020.98
2017-03-26T03:32:41.945Z,1020.97
2017-03-26T03:33:51.903Z,1020.96
2017-03-26T03:35:02.180Z,1020.98
2017-03-26T03:36:12.750Z,1020.94
2017-03-26T03:37:22.392Z,1020.95
2017-03-26T03:38:32.361Z,1020.92
2017-03-26T03:39:42.327Z,1020.95
2017-03-26T03:40:52.599Z,1020.96
2017-03-26T03:42:02.803Z,1020.96
2017-03-26T03:43:12.773Z,1020.94
2017-03-26T03:44:22.736Z,1020.96
2017-03-26T03:45:33.007Z,1020.91
2017-03-26T03:46:43.295Z,1020.91
2017-03-26T03:47:53.815Z,1020.94
2017-03-26T03:49:04.101Z,1020.94
2017-03-26T03:50:14.379Z,1020.9
2017-03-26T03:51:24.336Z,1020.92
2017-03-26T03:52:34.294Z,1020.9
2017-03-26T03:53:44.832Z,1020.93
2017-03-26T03:54:55.116Z,1020.94
2017-03-26T03:56:05.071Z,1020.92
2017-03-26T03:57:15.085Z,1020.92
2017-03-26T03:58:25.362Z,1020.87
2017-03-26T03:59:35.887Z,1020.86
2017-03-26T04:00:45.857Z,1020.91
2017-03-26T04:01:55.814Z,1020.89
2017-03-26T04:03:05.786Z,1020.91
2017-03-26T04:04:16.063Z,1020.82
2017-03-26T04:05:26.334Z,1020.79
2017-03-26T04:06:36.615Z,1020.8
2017-03-26T04:07:46.870Z,1020.77
2017-03-26T04:08:57.145Z,1020.79
2017-03-26T04:10:07.118Z,1020.77
2017-03-26T04:11:17.062Z,1020.81
2017-03-26T04:12:27.026Z,1020.81
2017-03-26T04:13:37.295Z,1020.83
2017-03-26T04:14:46.630Z,1020.85
2017-03-26T04:15:56.288Z,1020.85
2017-03-26T04:17:06.189Z,1020.87
2017-03-26T04:18:16.461Z,1020.86
2017-03-26T04:19:26.729Z,1020.91
2017-03-26T04:20:36.688Z,1020.89
2017-03-26T04:21:46.961Z,1020.91
2017-03-26T04:22:57.183Z,1020.94
2017-03-26T04:24:07.452Z,1020.91
2017-03-26T04:25:17.731Z,1020.9
2017-03-26T04:26:27.996Z,1020.91
2017-03-26T04:27:38.267Z,1020.94
2017-03-26T04:28:48.934Z,1020.99
2017-03-26T04:29:59.211Z,1020.95
2017-03-26T04:31:08.867Z,1020.95
2017-03-26T04:32:19.134Z,1021.01
2017-03-26T04:33:29.094Z,1021.01
2017-03-26T04:34:39.323Z,1021.03
2017-03-26T04:35:48.964Z,1020.99
2017-03-26T04:36:58.923Z,1020.97
2017-03-26T04:38:08.893Z,1020.92
2017-03-26T04:39:18.546Z,1020.96
2017-03-26T04:40:29.080Z,1020.96
2017-03-26T04:41:39.354Z,1020.98
2017-03-26T04:42:49.631Z,1020.98
2017-03-26T04:43:59.590Z,1020.98
2017-03-26T04:45:09.927Z,1020.99
2017-03-26T04:46:20.152Z,1020.99
2017-03-26T04:47:30.428Z,1020.96
2017-03-26T04:48:40.705Z,1020.94
2017-03-26T04:49:50.666Z,1020.91
2017-03-26T04:51:00.939Z,1020.96
2017-03-26T04:52:11.457Z,1020.93
2017-03-26T04:53:21.741Z,1020.93
2017-03-26T04:54:32.008Z,1020.91
2017-03-26T04:55:41.960Z,1020.94
2017-03-26T04:56:51.607Z,1020.91
2017-03-26T04:58:02.125Z,1020.89
2017-03-26T04:59:12.395Z,1020.94
2017-03-26T05:00:22.043Z,1020.93
2017-03-26T05:01:32.314Z,1020.96
2017-03-26T05:02:42.269Z,1020.94
2017-03-26T05:03:52.486Z,1020.96
2017-03-26T05:05:02.445Z,1020.98
2017-03-26T05:06:12.779Z,1021.01
2017-03-26T05:07:22.433Z,1021.01
2017-03-26T05:08:32.075Z,1021.01
2017-03-26T05:09:42.337Z,1020.99
2017-03-26T05:10:52.292Z,1021
2017-03-26T05:12:01.673Z,1020.96
2017-03-26T05:13:11.633Z,1020.97
2017-03-26T05:14:21.595Z,1020.95
2017-03-26T05:15:32.220Z,1020.94
2017-03-26T05:16:42.184Z,1020.97
2017-03-26T05:17:52.127Z,1020.98
2017-03-26T05:19:02.100Z,1020.97
2017-03-26T05:20:12.380Z,1020.94
2017-03-26T05:21:22.590Z,1020.92
2017-03-26T05:22:32.239Z,1020.95
2017-03-26T05:23:42.516Z,1020.92
2017-03-26T05:24:52.168Z,1020.96
2017-03-26T05:26:01.818Z,1020.95
2017-03-26T05:27:12.033Z,1021.01
2017-03-26T05:28:22.310Z,1020.98
2017-03-26T05:29:32.279Z,1020.98
2017-03-26T05:30:42.550Z,1021.01
2017-03-26T05:31:52.815Z,1021
2017-03-26T05:33:03.329Z,1021.05
2017-03-26T05:34:13.289Z,1021.1
2017-03-26T05:35:23.567Z,1021.09
2017-03-26T05:36:33.838Z,1021.12
2017-03-26T05:37:44.110Z,1021.1
2017-03-26T05:38:54.637Z,1021.13
2017-03-26T05:40:04.611Z,1021.18
2017-03-26T05:41:14.900Z,1021.2
2017-03-26T05:42:24.861Z,1021.28
2017-03-26T05:43:34.845Z,1021.31
2017-03-26T05:44:45.377Z,1021.3
2017-03-26T05:45:55.654Z,1021.37
2017-03-26T05:47:05.918Z,1021.37
2017-03-26T05:48:16.195Z,1021.38
2017-03-26T05:49:26.150Z,1021.4
2017-03-26T05:50:36.417Z,1021.43
2017-03-26T05:51:46.686Z,1021.45
2017-03-26T05:52:56.349Z,1021.46
2017-03-26T05:54:06.629Z,1021.5
2017-03-26T05:55:16.898Z,1021.52
2017-03-26T05:56:27.107Z,1021.53
2017-03-26T05:57:37.377Z,1021.5
2017-03-26T05:58:47.651Z,1021.54
2017-03-26T05:59:57.922Z,1021.57
2017-03-26T06:01:08.190Z,1021.56
2017-03-26T06:02:18.414Z,1021.54
2017-03-26T06:03:28.696Z,1021.55
2017-03-26T06:04:38.662Z,1021.58
2017-03-26T06:05:48.638Z,1021.62
2017-03-26T06:06:58.597Z,1021.62
2017-03-26T06:08:09.155Z,1021.66
2017-03-26T06:09:19.121Z,1021.68
2017-03-26T06:10:29.603Z,1021.72
2017-03-26T06:11:39.551Z,1021.76
2017-03-26T06:12:49.195Z,1021.75
2017-03-26T06:13:59.425Z,1021.76
2017-03-26T06:15:09.704Z,1021.8
2017-03-26T06:16:19.973Z,1021.79
2017-03-26T06:17:30.251Z,1021.79
2017-03-26T06:18:40.216Z,1021.8
2017-03-26T06:19:50.451Z,1021.77
2017-03-26T06:21:00.406Z,1021.78
2017-03-26T06:22:10.680Z,1021.79
2017-03-26T06:23:20.642Z,1021.85
2017-03-26T06:24:30.625Z,1021.82
2017-03-26T06:25:40.831Z,1021.81
2017-03-26T06:26:51.102Z,1021.88
2017-03-26T06:28:01.066Z,1021.84
2017-03-26T06:29:11.347Z,1021.9
2017-03-26T06:30:21.324Z,1021.9
2017-03-26T06:31:31.528Z,1021.92
2017-03-26T06:32:41.803Z,1021.89
2017-03-26T06:33:51.764Z,1021.88
2017-03-26T06:35:01.419Z,1021.92
2017-03-26T06:36:11.391Z,1021.91
2017-03-26T06:37:21.293Z,1021.97
2017-03-26T06:38:30.935Z,1021.97
2017-03-26T06:39:40.903Z,1022.03
2017-03-26T06:40:50.870Z,1022.02
2017-03-26T06:42:00.824Z,1022.04
2017-03-26T06:43:10.714Z,1022.08
2017-03-26T06:44:20.372Z,1022.09
2017-03-26T06:45:30.665Z,1022.14
2017-03-26T06:46:40.927Z,1022.13
2017-03-26T06:47:50.884Z,1022.16
2017-03-26T06:49:01.093Z,1022.16
2017-03-26T06:50:11.057Z,1022.17
2017-03-26T06:51:21.034Z,1022.16
2017-03-26T06:52:30.690Z,1022.14
2017-03-26T06:53:40.715Z,1022.22
2017-03-26T06:54:50.972Z,1022.2
2017-03-26T06:56:00.931Z,1022.21
2017-03-26T06:57:11.193Z,1022.25
2017-03-26T06:58:21.466Z,1022.23
2017-03-26T06:59:31.114Z,1022.23
2017-03-26T07:00:41.645Z,1022.24
2017-03-26T07:01:51.916Z,1022.26
2017-03-26T07:03:01.895Z,1022.36
2017-03-26T07:04:12.169Z,1022.31
2017-03-26T07:05:22.150Z,1022.36
2017-03-26T07:06:32.355Z,1022.34
2017-03-26T07:07:42.634Z,1022.3
2017-03-26T07:08:52.606Z,1022.31
2017-03-26T07:10:02.262Z,1022.31
2017-03-26T07:11:12.542Z,1022.34
2017-03-26T07:12:22.755Z,1022.34
2017-03-26T07:13:32.778Z,1022.35
2017-03-26T07:14:43.047Z,1022.32
2017-03-26T07:15:53.318Z,1022.29
2017-03-26T07:17:03.283Z,1022.34
2017-03-26T07:18:13.491Z,1022.32
2017-03-26T07:19:23.765Z,1022.38
2017-03-26T07:20:34.099Z,1022.43
2017-03-26T07:21:43.753Z,1022.4
2017-03-26T07:22:53.716Z,1022.41
2017-03-26T07:24:04.249Z,1022.41
2017-03-26T07:25:14.222Z,1022.38
2017-03-26T07:26:24.498Z,1022.38
2017-03-26T07:27:34.456Z,1022.38
2017-03-26T07:28:44.420Z,1022.37
2017-03-26T07:29:54.648Z,1022.41
2017-03-26T07:31:04.938Z,1022.42
2017-03-26T07:32:15.214Z,1022.44
2017-03-26T07:33:25.173Z,1022.45
2017-03-26T07:34:35.449Z,1022.42
2017-03-26T07:35:45.397Z,1022.44
2017-03-26T07:36:55.672Z,1022.4
2017-03-26T07:38:05.644Z,1022.43
2017-03-26T07:39:15.609Z,1022.43
2017-03-26T07:40:25.884Z,1022.46
2017-03-26T07:41:36.416Z,1022.46
2017-03-26T07:42:46.379Z,1022.46
2017-03-26T07:43:56.351Z,1022.51
2017-03-26T07:45:06.630Z,1022.53
2017-03-26T07:46:16.579Z,1022.51
2017-03-26T07:47:26.847Z,1022.56
2017-03-26T07:48:36.809Z,1022.55
2017-03-26T07:49:47.091Z,1022.56
2017-03-26T07:50:57.384Z,1022.56
2017-03-26T07:52:07.340Z,1022.55
2017-03-26T07:53:17.596Z,1022.56
2017-03-26T07:54:27.875Z,1022.55
2017-03-26T07:55:37.847Z,1022.57
2017-03-26T07:56:47.838Z,1022.54
2017-03-26T07:57:57.793Z,1022.56
2017-03-26T07:59:08.012Z,1022.62
2017-03-26T08:00:17.976Z,1022.62
2017-03-26T08:01:28.243Z,1022.61
2017-03-26T08:02:37.897Z,1022.66
2017-03-26T08:03:47.873Z,1022.62
2017-03-26T08:04:58.416Z,1022.68
2017-03-26T08:06:08.431Z,1022.67
2017-03-26T08:07:18.707Z,1022.63
2017-03-26T08:08:28.984Z,1022.65
2017-03-26T08:09:39.250Z,1022.67
2017-03-26T08:10:49.466Z,1022.69
2017-03-26T08:11:59.743Z,1022.73
2017-03-26T08:13:10.021Z,1022.7
2017-03-26T08:14:19.984Z,1022.68
2017-03-26T08:15:29.941Z,1022.71
2017-03-26T08:16:40.472Z,1022.66
2017-03-26T08:17:50.118Z,1022.68
2017-03-26T08:19:00.389Z,1022.68
2017-03-26T08:20:10.666Z,1022.68
2017-03-26T08:21:20.636Z,1022.73
2017-03-26T08:22:31.166Z,1022.74
2017-03-26T08:23:41.444Z,1022.77
2017-03-26T08:24:51.088Z,1022.77
2017-03-26T08:26:01.062Z,1022.79
2017-03-26T08:27:10.707Z,1022.81
2017-03-26T08:28:20.925Z,1022.78
2017-03-26T08:29:31.212Z,1022.8
2017-03-26T08:30:41.497Z,1022.83
2017-03-26T08:31:51.456Z,1022.81
2017-03-26T08:33:01.746Z,1022.85
2017-03-26T08:34:12.325Z,1022.85
2017-03-26T08:35:21.666Z,1022.86
2017-03-26T08:36:31.640Z,1022.84
2017-03-26T08:37:41.608Z,1022.83
2017-03-26T08:38:51.569Z,1022.79
2017-03-26T08:40:01.799Z,1022.78
2017-03-26T08:41:12.087Z,1022.8
2017-03-26T08:42:22.099Z,1022.84
2017-03-26T08:43:31.509Z,1022.91
2017-03-26T08:44:41.784Z,1022.89
2017-03-26T08:45:52.367Z,1022.87
2017-03-26T08:47:02.331Z,1022.81
2017-03-26T08:48:12.321Z,1022.81
2017-03-26T08:49:22.290Z,1022.81
2017-03-26T08:50:32.265Z,1022.8
2017-03-26T08:51:42.801Z,1022.79
2017-03-26T08:52:52.779Z,1022.77
2017-03-26T08:54:03.063Z,1022.77
2017-03-26T08:55:13.375Z,1022.74
2017-03-26T08:56:23.325Z,1022.75
2017-03-26T08:57:33.904Z,1022.76
2017-03-26T08:58:43.876Z,1022.76
2017-03-26T08:59:53.844Z,1022.73
2017-03-26T09:01:03.811Z,1022.74
2017-03-26T09:02:13.482Z,1022.73
2017-03-26T09:03:23.739Z,1022.66
2017-03-26T09:04:34.011Z,1022.68
2017-03-26T09:05:43.985Z,1022.66
2017-03-26T09:06:53.644Z,1022.67
2017-03-26T09:08:03.923Z,1022.7
2017-03-26T09:09:14.137Z,1022.7
2017-03-26T09:10:24.425Z,1022.72
2017-03-26T09:11:34.084Z,1022.69
2017-03-26T09:12:44.035Z,1022.69
2017-03-26T09:13:53.692Z,1022.66
2017-03-26T09:15:03.657Z,1022.67
2017-03-26T09:16:13.947Z,1022.68
2017-03-26T09:17:23.919Z,1022.69
2017-03-26T09:18:33.583Z,1022.67
2017-03-26T09:19:43.865Z,1022.69
2017-03-26T09:20:54.096Z,1022.71
2017-03-26T09:22:04.065Z,1022.63
2017-03-26T09:23:13.721Z,1022.72
2017-03-26T09:24:24.004Z,1022.7
2017-03-26T09:25:34.282Z,1022.7
2017-03-26T09:26:44.180Z,1022.63
2017-03-26T09:27:54.464Z,1022.61
2017-03-26T09:29:04.767Z,1022.58
2017-03-26T09:30:14.422Z,1022.62
2017-03-26T09:31:24.696Z,1022.63
2017-03-26T09:32:34.962Z,1022.61
2017-03-26T09:33:45.250Z,1022.63
2017-03-26T09:34:55.530Z,1022.61
2017-03-26T09:36:05.816Z,1022.63
2017-03-26T09:37:15.789Z,1022.63
2017-03-26T09:38:25.710Z,1022.62
2017-03-26T09:39:35.685Z,1022.66
2017-03-26T09:40:45.961Z,1022.61
2017-03-26T09:41:55.915Z,1022.65
2017-03-26T09:43:05.890Z,1022.63
2017-03-26T09:44:16.163Z,1022.67
2017-03-26T09:45:26.137Z,1022.66
2017-03-26T09:46:36.100Z,1022.67
2017-03-26T09:47:46.396Z,1022.72
2017-03-26T09:48:56.364Z,1022.72
2017-03-26T09:50:06.902Z,1022.73
2017-03-26T09:51:17.194Z,1022.74
2017-03-26T09:52:27.480Z,1022.68
2017-03-26T09:53:37.754Z,1022.72
2017-03-26T09:54:47.739Z,1022.73
2017-03-26T09:55:57.386Z,1022.77
2017-03-26T09:57:07.668Z,1022.79
2017-03-26T09:58:17.332Z,1022.79
2017-03-26T09:59:27.605Z,1022.82
2017-03-26T10:00:37.563Z,1022.84
2017-03-26T10:01:48.102Z,1022.88
2017-03-26T10:02:58.070Z,1022.87
2017-03-26T10:04:08.345Z,1022.89
2017-03-26T10:05:18.341Z,1022.89
2017-03-26T10:06:28.303Z,1022.9
2017-03-26T10:07:38.538Z,1022.91
2017-03-26T10:08:48.819Z,1022.9
2017-03-26T10:09:59.132Z,1022.92
2017-03-26T10:11:09.084Z,1022.88
2017-03-26T10:12:19.359Z,1022.89
2017-03-26T10:13:29.583Z,1022.88
2017-03-26T10:14:39.243Z,1022.88
2017-03-26T10:15:49.263Z,1022.93
2017-03-26T10:16:59.597Z,1022.97
2017-03-26T10:18:09.586Z,1022.93
2017-03-26T10:19:19.810Z,1022.93
2017-03-26T10:20:29.776Z,1022.99
2017-03-26T10:21:40.055Z,1022.96
2017-03-26T10:22:49.400Z,1022.97
2017-03-26T10:23:59.686Z,1022.95
2017-03-26T10:25:09.923Z,1022.98
2017-03-26T10:26:20.207Z,1023
2017-03-26T10:27:30.168Z,1022.96
2017-03-26T10:28:40.178Z,1022.95
2017-03-26T10:29:50.457Z,1022.9
2017-03-26T10:31:00.993Z,1022.91
2017-03-26T10:32:11.277Z,1022.92
2017-03-26T10:33:21.250Z,1022.93
2017-03-26T10:34:30.913Z,1022.93
2017-03-26T10:35:40.579Z,1022.93
2017-03-26T10:36:51.155Z,1022.96
2017-03-26T10:38:00.814Z,1022.97
2017-03-26T10:39:10.782Z,1022.97
2017-03-26T10:40:20.766Z,1023
2017-03-26T10:41:30.109Z,1022.99
2017-03-26T10:42:40.330Z,1023.03
2017-03-26T10:43:50.609Z,1023.03
2017-03-26T10:45:00.588Z,1023.06
2017-03-26T10:46:10.544Z,1023
2017-03-26T10:47:20.515Z,1022.98
2017-03-26T10:48:30.793Z,1022.95
2017-03-26T10:49:41.060Z,1022.88
2017-03-26T10:50:51.042Z,1022.89
2017-03-26T10:52:01.026Z,1022.84
2017-03-26T10:53:11.319Z,1022.86
2017-03-26T10:54:21.907Z,1022.87
2017-03-26T10:55:31.251Z,1022.88
2017-03-26T10:56:41.528Z,1022.88
2017-03-26T10:57:51.798Z,1022.88
2017-03-26T10:59:02.141Z,1022.88
2017-03-26T11:00:12.366Z,1022.92
2017-03-26T11:01:22.647Z,1022.98
2017-03-26T11:02:32.938Z,1022.94
2017-03-26T11:03:42.900Z,1022.97
2017-03-26T11:04:52.874Z,1023.02
2017-03-26T11:06:03.422Z,1022.98
2017-03-26T11:07:13.726Z,1023.02
2017-03-26T11:08:24.005Z,1023.02
2017-03-26T11:09:33.987Z,1023.06
2017-03-26T11:10:43.977Z,1023
2017-03-26T11:11:53.883Z,1023.02
2017-03-26T11:13:03.845Z,1023.02
2017-03-26T11:14:13.817Z,1023.01
2017-03-26T11:15:23.778Z,1023.02
2017-03-26T11:16:33.740Z,1022.96
2017-03-26T11:17:44.278Z,1022.99
2017-03-26T11:18:54.562Z,1022.99
2017-03-26T11:20:04.853Z,1023
2017-03-26T11:21:15.154Z,1022.94
2017-03-26T11:22:24.822Z,1022.95
2017-03-26T11:23:35.032Z,1022.87
2017-03-26T11:24:45.008Z,1022.98
2017-03-26T11:25:55.310Z,1022.94
2017-03-26T11:27:05.318Z,1022.94
2017-03-26T11:28:15.289Z,1022.92
2017-03-26T11:29:25.505Z,1022.91
2017-03-26T11:30:35.160Z,1022.96
2017-03-26T11:31:45.436Z,1022.89
2017-03-26T11:32:54.789Z,1022.92
2017-03-26T11:34:04.769Z,1022.86
2017-03-26T11:35:14.702Z,1022.85
2017-03-26T11:36:24.984Z,1022.8
2017-03-26T11:37:34.952Z,1022.78
2017-03-26T11:38:44.925Z,1022.74
2017-03-26T11:39:54.904Z,1022.72
2017-03-26T11:41:05.449Z,1022.69
2017-03-26T11:42:15.417Z,1022.65
2017-03-26T11:43:25.387Z,1022.6
2017-03-26T11:44:35.675Z,1022.59
2017-03-26T11:45:45.328Z,1022.58
2017-03-26T11:46:55.861Z,1022.57
2017-03-26T11:48:06.140Z,1022.54
2017-03-26T11:49:16.121Z,1022.53
2017-03-26T11:50:26.416Z,1022.59
2017-03-26T11:51:36.390Z,1022.57
2017-03-26T11:52:46.926Z,1022.57
2017-03-26T11:53:57.203Z,1022.56
2017-03-26T11:55:07.490Z,1022.58
2017-03-26T11:56:17.773Z,1022.52
2017-03-26T11:57:28.052Z,1022.58
2017-03-26T11:58:38.580Z,1022.54
2017-03-26T11:59:48.875Z,1022.59
2017-03-26T12:00:59.171Z,1022.52
2017-03-26T12:02:09.139Z,1022.52
2017-03-26T12:03:19.111Z,1022.55
2017-03-26T12:04:29.648Z,1022.58
2017-03-26T12:05:39.622Z,1022.6
2017-03-26T12:06:49.892Z,1022.59
2017-03-26T12:08:00.162Z,1022.61
2017-03-26T12:09:10.140Z,1022.6
2017-03-26T12:10:20.671Z,1022.61
2017-03-26T12:11:29.723Z,1022.6
2017-03-26T12:12:39.689Z,1022.59
2017-03-26T12:13:49.356Z,1022.64
2017-03-26T12:14:59.670Z,1022.67
2017-03-26T12:16:09.891Z,1022.68
2017-03-26T12:17:20.185Z,1022.64
2017-03-26T12:18:29.553Z,1022.66
2017-03-26T12:19:39.841Z,1022.59
2017-03-26T12:20:50.123Z,1022.64
2017-03-26T12:22:00.651Z,1022.62
2017-03-26T12:23:10.612Z,1022.66
2017-03-26T12:24:20.908Z,1022.72
2017-03-26T12:25:30.891Z,1022.72
2017-03-26T12:26:41.172Z,1022.74
2017-03-26T12:27:51.079Z,1022.71
2017-03-26T12:29:00.735Z,1022.68
2017-03-26T12:30:11.017Z,1022.72
2017-03-26T12:31:21.303Z,1022.67
2017-03-26T12:32:31.580Z,1022.66
2017-03-26T12:33:41.883Z,1022.67
2017-03-26T12:34:51.559Z,1022.69
2017-03-26T12:36:01.847Z,1022.63
2017-03-26T12:37:12.166Z,1022.63
2017-03-26T12:38:22.443Z,1022.58
2017-03-26T12:39:33.010Z,1022.61
2017-03-26T12:40:42.687Z,1022.58
2017-03-26T12:41:52.969Z,1022.54
2017-03-26T12:43:02.948Z,1022.57
2017-03-26T12:44:13.245Z,1022.58
2017-03-26T12:45:23.843Z,1022.53
2017-03-26T12:46:33.814Z,1022.52
2017-03-26T12:47:44.112Z,1022.5
2017-03-26T12:48:54.403Z,1022.49
2017-03-26T12:50:04.685Z,1022.5
2017-03-26T12:51:14.912Z,1022.45
2017-03-26T12:52:24.619Z,1022.45
2017-03-26T12:53:34.590Z,1022.44
2017-03-26T12:54:44.870Z,1022.43
2017-03-26T12:55:54.532Z,1022.37
2017-03-26T12:57:05.356Z,1022.39
2017-03-26T12:58:15.323Z,1022.38
2017-03-26T12:59:25.603Z,1022.42
2017-03-26T13:00:35.876Z,1022.39
2017-03-26T13:01:45.848Z,1022.38
2017-03-26T13:02:56.419Z,1022.4
2017-03-26T13:04:06.693Z,1022.38
2017-03-26T13:05:16.970Z,1022.41
2017-03-26T13:06:27.332Z,1022.43
2017-03-26T13:07:37.299Z,1022.38
2017-03-26T13:08:47.544Z,1022.34
2017-03-26T13:09:57.249Z,1022.37
2017-03-26T13:11:07.530Z,1022.29
2017-03-26T13:12:17.820Z,1022.29
2017-03-26T13:13:27.793Z,1022.33
2017-03-26T13:14:38.342Z,1022.35
2017-03-26T13:15:47.733Z,1022.31
2017-03-26T13:16:57.396Z,1022.31
2017-03-26T13:18:07.376Z,1022.35
2017-03-26T13:19:16.725Z,1022.34
2017-03-26T13:20:27.318Z,1022.31
2017-03-26T13:21:37.287Z,1022.32
2017-03-26T13:22:47.261Z,1022.28
2017-03-26T13:23:57.298Z,1022.24
2017-03-26T13:25:07.288Z,1022.26
2017-03-26T13:26:17.863Z,1022.27
2017-03-26T13:27:28.134Z,1022.24
2017-03-26T13:28:38.414Z,1022.29
2017-03-26T13:29:48.696Z,1022.29
2017-03-26T13:30:58.967Z,1022.28
2017-03-26T13:32:09.239Z,1022.24
2017-03-26T13:33:18.886Z,1022.28
2017-03-26T13:34:29.185Z,1022.28
2017-03-26T13:35:39.460Z,1022.33
2017-03-26T13:36:49.745Z,1022.29
2017-03-26T13:38:00.076Z,1022.29
2017-03-26T13:39:09.742Z,1022.26
2017-03-26T13:40:20.041Z,1022.24
2017-03-26T13:41:30.011Z,1022.25
2017-03-26T13:42:40.294Z,1022.28
2017-03-26T13:43:50.517Z,1022.29
2017-03-26T13:45:00.487Z,1022.29
2017-03-26T13:46:10.782Z,1022.31
2017-03-26T13:47:20.762Z,1022.28
2017-03-26T13:48:31.263Z,1022.3
2017-03-26T13:49:41.535Z,1022.31
2017-03-26T13:50:51.820Z,1022.33
2017-03-26T13:52:01.497Z,1022.3
2017-03-26T13:53:11.789Z,1022.29
2017-03-26T13:54:22.079Z,1022.27
2017-03-26T13:55:32.608Z,1022.3
2017-03-26T13:56:42.894Z,1022.24
2017-03-26T13:57:52.873Z,1022.26
2017-03-26T13:59:03.156Z,1022.29
2017-03-26T14:00:13.441Z,1022.25
2017-03-26T14:01:23.975Z,1022.25
2017-03-26T14:02:33.972Z,1022.23
2017-03-26T14:03:43.973Z,1022.28
2017-03-26T14:04:53.976Z,1022.25
2017-03-26T14:06:03.951Z,1022.26
2017-03-26T14:07:13.907Z,1022.25
2017-03-26T14:08:24.195Z,1022.25
2017-03-26T14:09:46.605Z,1022.26
2017-03-26T14:10:56.952Z,1022.27